Time;durP1;ratioP1;P1;durP2;ratioP2;P2;SDS_P1;SDS_P2;PMS_P1;PMS_P2;Temp;Humidity;BMP_temperature;BMP_pressure;BME280_temperature;BME280_humidity;BME280_pressure;Samples;Min_cycle;Max_cycle;Signal;HPM_P1;HPM_P2
2021/11/05 00:01:38;;;;;;;;;;;23.10;46.70;;;;;;1530895;76;712;-54
2021/11/05 00:03:40;;;;;;;;;;;23.10;46.70;;;;;;1533970;76;709;-54
2021/11/05 00:05:42;;;;;;;;;;;23.00;46.60;;;;;;1532029;76;1149;-53
2021/11/05 00:07:44;;;;;;;;;;;23.10;46.80;;;;;;1526451;76;634;-54
2021/11/05 00:09:46;;;;;;;;;;;23.10;46.90;;;;;;1534559;76;817;-53
2021/11/05 00:11:48;;;;;;;;;;;23.10;47.00;;;;;;1534250;76;680;-52
2021/11/05 00:13:50;;;;;;;;;;;23.10;47.00;;;;;;1534396;75;787;-52
2021/11/05 00:15:52;;;;;;;;;;;23.10;47.00;;;;;;1534883;76;1079;-54
2021/11/05 00:17:54;;;;;;;;;;;23.10;47.00;;;;;;1534588;76;1939;-55
2021/11/05 00:19:56;;;;;;;;;;;23.10;47.10;;;;;;1530718;76;723;-55
2021/11/05 00:21:58;;;;;;;;;;;23.10;47.10;;;;;;1531360;76;705;-56
2021/11/05 00:23:59;;;;;;;;;;;23.10;47.10;;;;;;1533722;76;709;-54
2021/11/05 00:26:01;;;;;;;;;;;23.10;47.10;;;;;;1536150;76;1176;-55
2021/11/05 00:28:03;;;;;;;;;;;23.10;47.10;;;;;;1536389;76;677;-53
2021/11/05 00:30:06;;;;;;;;;;;23.10;47.00;;;;;;1536209;76;669;-55
2021/11/05 00:32:08;;;;;;;;;;;23.10;47.00;;;;;;1535347;76;682;-53
2021/11/05 00:34:10;;;;;;;;;;;23.10;47.10;;;;;;1534891;77;709;-53
2021/11/05 00:36:14;;;;;;;;;;;23.10;47.00;;;;;;1530295;76;1190;-55
2021/11/05 00:38:16;;;;;;;;;;;23.10;47.00;;;;;;1534947;76;1902;-53
2021/11/05 00:40:18;;;;;;;;;;;23.10;47.00;;;;;;1534719;76;738;-53
2021/11/05 00:42:19;;;;;;;;;;;23.10;47.10;;;;;;1534970;76;797;-55
2021/11/05 00:44:21;;;;;;;;;;;23.10;47.10;;;;;;1534856;76;771;-54
2021/11/05 00:46:23;;;;;;;;;;;23.10;47.10;;;;;;1530513;76;1145;-54
2021/11/05 00:48:25;;;;;;;;;;;23.10;47.20;;;;;;1528149;76;710;-53
2021/11/05 00:50:27;;;;;;;;;;;23.10;47.10;;;;;;1534068;76;701;-54
2021/11/05 00:52:29;;;;;;;;;;;23.10;47.10;;;;;;1529995;76;793;-54
2021/11/05 00:54:31;;;;;;;;;;;23.10;47.10;;;;;;1535548;76;667;-56
2021/11/05 00:56:33;;;;;;;;;;;23.10;47.20;;;;;;1535095;76;1950;-53
2021/11/05 00:58:34;;;;;;;;;;;23.10;47.20;;;;;;1536078;76;728;-54
2021/11/05 01:00:36;;;;;;;;;;;23.10;47.10;;;;;;1534978;77;693;-55
2021/11/05 01:02:38;;;;;;;;;;;23.10;47.20;;;;;;1523508;76;749;-55
2021/11/05 01:04:40;;;;;;;;;;;23.10;47.10;;;;;;1527694;76;759;-55
2021/11/05 01:06:42;;;;;;;;;;;23.10;47.10;;;;;;1529358;75;1061;-53
2021/11/05 01:08:44;;;;;;;;;;;23.10;47.10;;;;;;1531292;75;746;-54
2021/11/05 01:10:46;;;;;;;;;;;23.20;47.10;;;;;;1534855;75;702;-53
2021/11/05 01:12:48;;;;;;;;;;;23.20;47.10;;;;;;1538234;76;713;-54
2021/11/05 01:14:50;;;;;;;;;;;23.10;47.00;;;;;;1533956;76;1186;-53
2021/11/05 01:16:52;;;;;;;;;;;23.20;47.00;;;;;;1534181;77;1970;-52
2021/11/05 01:18:54;;;;;;;;;;;23.20;46.90;;;;;;1552511;76;712;-55
2021/11/05 01:20:56;;;;;;;;;;;23.20;46.90;;;;;;1536349;75;690;-55
2021/11/05 01:22:57;;;;;;;;;;;23.20;46.90;;;;;;1544260;76;709;-57
2021/11/05 01:24:59;;;;;;;;;;;23.20;46.80;;;;;;1537018;76;1136;-57
2021/11/05 01:27:01;;;;;;;;;;;23.10;46.80;;;;;;1533496;75;681;-55
2021/11/05 01:29:03;;;;;;;;;;;23.20;46.90;;;;;;1532205;75;682;-55
2021/11/05 01:31:05;;;;;;;;;;;23.20;46.80;;;;;;1536953;76;725;-54
2021/11/05 01:33:07;;;;;;;;;;;23.20;46.90;;;;;;1547263;76;831;-54
2021/11/05 01:35:09;;;;;;;;;;;23.20;46.90;;;;;;1516161;75;1147;-56
2021/11/05 01:37:11;;;;;;;;;;;23.20;46.80;;;;;;1540776;76;1941;-53
2021/11/05 01:39:13;;;;;;;;;;;23.30;46.80;;;;;;1527006;76;736;-55
2021/11/05 01:41:15;;;;;;;;;;;23.20;46.70;;;;;;1532047;76;758;-52
2021/11/05 01:43:17;;;;;;;;;;;23.20;46.70;;;;;;1532981;76;767;-56
2021/11/05 01:45:19;;;;;;;;;;;23.20;46.70;;;;;;1514111;75;1173;-56
2021/11/05 01:47:21;;;;;;;;;;;23.20;46.70;;;;;;1534759;75;741;-56
2021/11/05 01:49:22;;;;;;;;;;;23.20;46.70;;;;;;1534511;76;767;-55
2021/11/05 01:51:24;;;;;;;;;;;23.20;46.70;;;;;;1523292;75;813;-54
2021/11/05 01:53:26;;;;;;;;;;;23.20;46.70;;;;;;1532461;75;707;-54
2021/11/05 01:55:28;;;;;;;;;;;23.20;46.70;;;;;;1523154;76;1071;-53
2021/11/05 01:57:30;;;;;;;;;;;23.30;46.80;;;;;;1534626;76;1939;-55
2021/11/05 01:59:33;;;;;;;;;;;23.20;46.70;;;;;;1534256;76;739;-54
2021/11/05 02:01:35;;;;;;;;;;;23.20;46.70;;;;;;1534972;76;695;-55
2021/11/05 02:03:37;;;;;;;;;;;23.20;46.80;;;;;;1544476;75;688;-54
2021/11/05 02:05:39;;;;;;;;;;;23.20;46.80;;;;;;1541090;75;1121;-53
2021/11/05 02:07:43;;;;;;;;;;;23.20;46.80;;;;;;1537139;75;745;-52
2021/11/05 02:09:45;;;;;;;;;;;23.20;46.70;;;;;;1534556;76;1434;-53
2021/11/05 02:11:47;;;;;;;;;;;23.20;46.80;;;;;;1533250;76;784;-52
2021/11/05 02:13:49;;;;;;;;;;;23.20;46.70;;;;;;1530665;76;752;-54
2021/11/05 02:15:51;;;;;;;;;;;23.20;46.70;;;;;;1521658;76;1167;-54
2021/11/05 02:17:53;;;;;;;;;;;23.20;46.70;;;;;;1507173;77;1909;-55
2021/11/05 02:19:59;;;;;;;;;;;23.20;46.80;;;;;;1530017;75;719;-56
2021/11/05 02:22:01;;;;;;;;;;;23.10;46.90;;;;;;1532733;75;673;-54
2021/11/05 02:24:03;;;;;;;;;;;23.10;46.90;;;;;;1528438;76;589;-56
2021/11/05 02:26:04;;;;;;;;;;;23.20;47.00;;;;;;1534157;76;1167;-55
2021/11/05 02:28:07;;;;;;;;;;;23.10;47.00;;;;;;1547897;73;221260;-70
2021/11/05 02:30:09;;;;;;;;;;;23.10;46.90;;;;;;1556857;76;785;-70
2021/11/05 02:32:12;;;;;;;;;;;23.20;46.90;;;;;;1540493;76;700;-69
2021/11/05 02:34:14;;;;;;;;;;;23.10;46.90;;;;;;1543449;76;1225;-70
2021/11/05 02:36:16;;;;;;;;;;;23.10;47.00;;;;;;1547019;76;765;-70
2021/11/05 02:38:17;;;;;;;;;;;23.10;47.00;;;;;;1546430;76;1951;-69
2021/11/05 02:40:19;;;;;;;;;;;23.10;47.10;;;;;;1546813;76;799;-69
2021/11/05 02:42:21;;;;;;;;;;;23.10;47.10;;;;;;1536191;76;781;-69
2021/11/05 02:44:23;;;;;;;;;;;23.10;47.10;;;;;;1530397;75;1153;-69
2021/11/05 02:46:25;;;;;;;;;;;23.10;47.20;;;;;;1549008;76;797;-69
2021/11/05 02:48:27;;;;;;;;;;;23.10;47.10;;;;;;1544472;76;802;-69
2021/11/05 02:50:29;;;;;;;;;;;23.10;47.10;;;;;;1543333;76;765;-70
2021/11/05 02:52:31;;;;;;;;;;;23.10;47.10;;;;;;1541035;76;1069;-70
2021/11/05 02:54:33;;;;;;;;;;;23.10;47.20;;;;;;1547127;75;1129;-70
2021/11/05 02:56:35;;;;;;;;;;;23.10;47.20;;;;;;1545714;76;669;-71
2021/11/05 02:58:37;;;;;;;;;;;23.10;47.30;;;;;;1553975;76;1930;-69
2021/11/05 03:00:38;;;;;;;;;;;23.10;47.20;;;;;;1542252;76;765;-69
2021/11/05 03:02:40;;;;;;;;;;;23.10;47.20;;;;;;1552499;75;652;-70
2021/11/05 03:04:42;;;;;;;;;;;23.10;47.20;;;;;;1543512;75;1139;-69
2021/11/05 03:06:44;;;;;;;;;;;23.10;47.20;;;;;;1549579;76;793;-69
2021/11/05 03:08:46;;;;;;;;;;;23.10;47.10;;;;;;1540237;76;732;-69
2021/11/05 03:10:48;;;;;;;;;;;23.10;47.10;;;;;;1538528;76;817;-69
2021/11/05 03:12:50;;;;;;;;;;;23.10;47.10;;;;;;1534403;76;676;-69
2021/11/05 03:14:51;;;;;;;;;;;23.20;47.00;;;;;;1535368;75;1181;-69
2021/11/05 03:16:53;;;;;;;;;;;23.10;47.00;;;;;;1539427;76;728;-70
2021/11/05 03:18:55;;;;;;;;;;;23.10;47.00;;;;;;1539613;76;1943;-70
2021/11/05 03:20:57;;;;;;;;;;;23.20;47.10;;;;;;1556977;76;717;-69
2021/11/05 03:22:59;;;;;;;;;;;23.20;47.00;;;;;;1535307;76;720;-70
2021/11/05 03:25:01;;;;;;;;;;;23.20;47.10;;;;;;1545945;75;1136;-70
2021/11/05 03:27:03;;;;;;;;;;;23.10;47.10;;;;;;1534244;76;714;-70
2021/11/05 03:29:05;;;;;;;;;;;23.10;47.10;;;;;;1546533;76;753;-70
2021/11/05 03:31:07;;;;;;;;;;;23.10;47.10;;;;;;1550288;76;607;-70
2021/11/05 03:33:09;;;;;;;;;;;23.20;47.10;;;;;;1538360;76;703;-70
2021/11/05 03:35:10;;;;;;;;;;;23.20;47.10;;;;;;1540166;76;1143;-70
2021/11/05 03:37:12;;;;;;;;;;;23.20;47.10;;;;;;1534119;76;819;-69
2021/11/05 03:39:14;;;;;;;;;;;23.10;47.10;;;;;;1542282;76;1937;-70
2021/11/05 03:41:16;;;;;;;;;;;23.20;47.10;;;;;;1519739;76;781;-70
2021/11/05 03:43:18;;;;;;;;;;;23.20;47.10;;;;;;1544417;76;794;-70
2021/11/05 03:45:20;;;;;;;;;;;23.20;47.00;;;;;;1535335;76;1140;-70
2021/11/05 03:47:22;;;;;;;;;;;23.30;47.00;;;;;;1554640;76;696;-70
2021/11/05 03:49:24;;;;;;;;;;;23.40;46.90;;;;;;1552214;76;709;-70
2021/11/05 03:51:26;;;;;;;;;;;23.40;46.80;;;;;;1557904;76;824;-70
2021/11/05 03:53:28;;;;;;;;;;;23.50;46.80;;;;;;1548512;76;644;-69
2021/11/05 03:55:30;;;;;;;;;;;23.50;46.70;;;;;;1553096;75;1156;-69
2021/11/05 03:57:32;;;;;;;;;;;23.50;46.60;;;;;;1536632;76;789;-69
2021/11/05 03:59:34;;;;;;;;;;;23.50;46.60;;;;;;1545895;75;1947;-69
2021/11/05 04:01:36;;;;;;;;;;;23.60;46.70;;;;;;1547014;75;723;-68
2021/11/05 04:03:38;;;;;;;;;;;23.50;46.60;;;;;;1537304;76;724;-70
2021/11/05 04:05:39;;;;;;;;;;;23.60;46.40;;;;;;1554700;75;1149;-70
2021/11/05 04:07:41;;;;;;;;;;;23.60;46.30;;;;;;1548666;75;779;-69
2021/11/05 04:09:43;;;;;;;;;;;23.60;46.20;;;;;;1551852;75;728;-69
2021/11/05 04:11:45;;;;;;;;;;;23.70;46.30;;;;;;1544268;76;784;-69
2021/11/05 04:13:47;;;;;;;;;;;23.70;46.10;;;;;;1537417;76;1088;-69
2021/11/05 04:15:49;;;;;;;;;;;23.70;46.20;;;;;;1540640;75;1141;-68
2021/11/05 04:17:51;;;;;;;;;;;23.70;46.10;;;;;;1546994;76;1942;-69
2021/11/05 04:19:53;;;;;;;;;;;23.70;46.00;;;;;;1556414;75;715;-69
2021/11/05 04:21:55;;;;;;;;;;;23.70;45.80;;;;;;1548365;75;719;-69
2021/11/05 04:23:57;;;;;;;;;;;23.80;45.70;;;;;;1547537;75;746;-69
2021/11/05 04:25:59;;;;;;;;;;;23.70;45.60;;;;;;1551006;75;1101;-69
2021/11/05 04:28:01;;;;;;;;;;;23.80;45.50;;;;;;1549225;75;763;-70
2021/11/05 04:30:04;;;;;;;;;;;23.80;45.50;;;;;;1546161;75;623;-69
2021/11/05 04:32:06;;;;;;;;;;;23.90;45.50;;;;;;1548300;76;727;-69
2021/11/05 04:34:08;;;;;;;;;;;23.90;45.60;;;;;;1546761;75;1122;-70
2021/11/05 04:36:11;;;;;;;;;;;23.90;45.60;;;;;;1562544;76;743;-70
2021/11/05 04:38:13;;;;;;;;;;;23.80;45.60;;;;;;1551197;75;1915;-69
2021/11/05 04:40:15;;;;;;;;;;;23.90;45.60;;;;;;1528229;75;747;-70
2021/11/05 04:42:16;;;;;;;;;;;23.90;45.40;;;;;;1528979;75;785;-70
2021/11/05 04:44:18;;;;;;;;;;;23.90;45.30;;;;;;1519825;75;1174;-70
2021/11/05 04:46:20;;;;;;;;;;;24.00;45.20;;;;;;1540871;75;764;-69
2021/11/05 04:48:22;;;;;;;;;;;24.10;45.20;;;;;;1545463;75;708;-70
2021/11/05 04:50:24;;;;;;;;;;;24.00;45.20;;;;;;1532101;75;754;-69
2021/11/05 04:52:26;;;;;;;;;;;24.00;45.30;;;;;;1524365;75;627;-69
2021/11/05 04:54:28;;;;;;;;;;;23.90;45.20;;;;;;1533387;75;1149;-69
2021/11/05 04:56:30;;;;;;;;;;;24.00;45.10;;;;;;1537700;75;709;-69
2021/11/05 04:58:32;;;;;;;;;;;24.00;45.10;;;;;;1544390;75;1937;-70
2021/11/05 05:00:34;;;;;;;;;;;24.00;45.10;;;;;;1535288;75;781;-70
2021/11/05 05:02:36;;;;;;;;;;;23.90;45.10;;;;;;1538000;75;682;-70
2021/11/05 05:04:38;;;;;;;;;;;24.00;45.10;;;;;;1542390;75;1151;-70
2021/11/05 05:06:39;;;;;;;;;;;24.00;45.10;;;;;;1534732;75;712;-69
2021/11/05 05:08:41;;;;;;;;;;;24.00;45.10;;;;;;1519042;75;799;-69
2021/11/05 05:10:43;;;;;;;;;;;23.90;45.10;;;;;;1537021;75;751;-69
2021/11/05 05:12:45;;;;;;;;;;;23.90;45.10;;;;;;1536107;75;662;-69
2021/11/05 05:14:47;;;;;;;;;;;24.00;45.00;;;;;;1536429;75;1139;-69
2021/11/05 05:16:49;;;;;;;;;;;23.90;45.10;;;;;;1529978;75;798;-68
2021/11/05 05:18:51;;;;;;;;;;;23.90;45.20;;;;;;1528664;75;1957;-69
2021/11/05 05:20:52;;;;;;;;;;;23.80;45.20;;;;;;1528095;75;693;-69
2021/11/05 05:22:56;;;;;;;;;;;23.90;45.30;;;;;;1530118;75;719;-69
2021/11/05 05:24:58;;;;;;;;;;;23.80;45.20;;;;;;1526283;75;1222;-69
2021/11/05 05:27:00;;;;;;;;;;;23.80;45.20;;;;;;1527538;75;753;-69
2021/11/05 05:29:02;;;;;;;;;;;23.70;45.30;;;;;;1539498;75;792;-69
2021/11/05 05:31:07;;;;;;;;;;;23.70;45.30;;;;;;1545755;75;798;-69
2021/11/05 05:33:08;;;;;;;;;;;23.80;45.30;;;;;;1540243;75;1721;-69
2021/11/05 05:35:10;;;;;;;;;;;23.70;45.30;;;;;;1538467;75;1143;-69
2021/11/05 05:37:11;;;;;;;;;;;23.80;45.30;;;;;;1535160;75;724;-69
2021/11/05 05:39:14;;;;;;;;;;;23.70;45.20;;;;;;1549014;75;1938;-69
2021/11/05 05:41:17;;;;;;;;;;;23.80;45.30;;;;;;1532342;75;718;-69
2021/11/05 05:43:18;;;;;;;;;;;23.70;45.30;;;;;;1525873;75;744;-68
2021/11/05 05:45:21;;;;;;;;;;;23.70;45.30;;;;;;1542144;75;1229;-69
2021/11/05 05:47:23;;;;;;;;;;;23.80;45.30;;;;;;1519091;75;711;-69
2021/11/05 05:49:25;;;;;;;;;;;23.80;45.20;;;;;;1543903;75;640;-68
2021/11/05 05:51:32;;;;;;;;;;;23.70;45.20;;;;;;1531309;75;723;-68
2021/11/05 05:53:30;;;;;;;;;;;23.70;45.30;;;;;;1526392;75;1509;-68
2021/11/05 05:55:32;;;;;;;;;;;23.70;45.40;;;;;;1532502;75;1194;-69
2021/11/05 05:57:34;;;;;;;;;;;23.70;45.30;;;;;;1520292;75;699;-69
2021/11/05 05:59:36;;;;;;;;;;;23.70;45.50;;;;;;1530193;75;1943;-68
2021/11/05 06:01:38;;;;;;;;;;;23.70;45.80;;;;;;1533026;75;721;-68
2021/11/05 06:03:40;;;;;;;;;;;23.70;45.70;;;;;;1529448;75;709;-68
2021/11/05 06:05:42;;;;;;;;;;;23.70;45.50;;;;;;1545657;75;1152;-67
2021/11/05 06:07:44;;;;;;;;;;;23.70;45.50;;;;;;1532022;75;723;-68
2021/11/05 06:09:45;;;;;;;;;;;23.70;45.50;;;;;;1530784;75;719;-68
2021/11/05 06:11:47;;;;;;;;;;;23.70;45.50;;;;;;1539076;75;628;-68
2021/11/05 06:13:49;;;;;;;;;;;23.70;45.50;;;;;;1537603;75;717;-69
2021/11/05 06:15:51;;;;;;;;;;;23.70;45.60;;;;;;1527385;75;1130;-69
2021/11/05 06:17:53;;;;;;;;;;;23.70;45.50;;;;;;1526715;75;673;-68
2021/11/05 06:19:55;;;;;;;;;;;23.70;45.50;;;;;;1525631;75;1942;-69
2021/11/05 06:21:57;;;;;;;;;;;23.70;45.60;;;;;;1531739;75;733;-69
2021/11/05 06:23:59;;;;;;;;;;;23.70;45.70;;;;;;1526772;75;712;-69
2021/11/05 06:26:01;;;;;;;;;;;23.70;45.80;;;;;;1533974;75;737;-70
2021/11/05 06:28:02;;;;;;;;;;;23.70;45.60;;;;;;1528444;75;796;-69
2021/11/05 06:30:07;;;;;;;;;;;23.70;45.50;;;;;;1513591;75;691;-69
2021/11/05 06:32:09;;;;;;;;;;;23.80;45.50;;;;;;1519108;75;1009;-68
2021/11/05 06:34:11;;;;;;;;;;;23.90;45.50;;;;;;1521207;75;1183;-69
2021/11/05 06:36:13;;;;;;;;;;;23.90;45.30;;;;;;1520554;75;1103;-71
2021/11/05 06:38:15;;;;;;;;;;;23.90;45.30;;;;;;1529004;75;791;-69
2021/11/05 06:40:18;;;;;;;;;;;23.90;45.30;;;;;;1519074;75;1935;-68
2021/11/05 06:42:24;;;;;;;;;;;23.90;45.50;;;;;;1521965;75;753;-69
2021/11/05 06:44:26;;;;;;;;;;;23.80;45.80;;;;;;1512981;75;1182;-68
2021/11/05 06:46:28;;;;;;;;;;;23.80;45.70;;;;;;1526865;75;734;-69
2021/11/05 06:48:30;;;;;;;;;;;23.80;45.80;;;;;;1518950;75;790;-68
2021/11/05 06:50:32;;;;;;;;;;;23.70;45.70;;;;;;1518706;75;742;-68
2021/11/05 06:52:34;;;;;;;;;;;23.80;45.90;;;;;;1526374;75;661;-69
2021/11/05 06:54:38;;;;;;;;;;;23.80;45.80;;;;;;1531721;75;1194;-70
2021/11/05 06:56:40;;;;;;;;;;;23.80;45.90;;;;;;1529377;75;720;-68
2021/11/05 06:58:42;;;;;;;;;;;23.80;46.10;;;;;;1518706;75;1936;-67
2021/11/05 07:00:44;;;;;;;;;;;23.80;46.00;;;;;;1521576;75;777;-68
2021/11/05 07:02:46;;;;;;;;;;;23.70;46.00;;;;;;1527374;75;725;-68
2021/11/05 07:04:48;;;;;;;;;;;23.90;45.60;;;;;;1541513;75;1141;-68
2021/11/05 07:06:53;;;;;;;;;;;23.90;45.50;;;;;;1551042;75;669;-71
2021/11/05 07:08:54;;;;;;;;;;;23.90;45.40;;;;;;1552456;75;1440;-69
2021/11/05 07:10:55;;;;;;;;;;;23.80;45.50;;;;;;1551114;75;738;-70
2021/11/05 07:12:57;;;;;;;;;;;23.70;45.50;;;;;;1550463;75;722;-69
2021/11/05 07:14:59;;;;;;;;;;;23.70;45.50;;;;;;1546149;75;1152;-69
2021/11/05 07:17:01;;;;;;;;;;;23.70;45.50;;;;;;1549012;75;699;-68
2021/11/05 07:19:04;;;;;;;;;;;23.70;45.50;;;;;;1547191;75;1938;-69
2021/11/05 07:21:06;;;;;;;;;;;23.70;45.50;;;;;;1553692;75;783;-69
2021/11/05 07:23:08;;;;;;;;;;;23.70;45.40;;;;;;1553130;75;769;-69
2021/11/05 07:25:10;;;;;;;;;;;23.60;45.30;;;;;;1549333;75;1153;-69
2021/11/05 07:27:12;;;;;;;;;;;23.60;45.30;;;;;;1538414;75;651;-68
2021/11/05 07:29:19;;;;;;;;;;;23.70;45.30;;;;;;1547238;75;733;-69
2021/11/05 07:31:17;;;;;;;;;;;23.60;45.20;;;;;;1547811;75;1616;-69
2021/11/05 07:33:19;;;;;;;;;;;23.60;45.10;;;;;;1553497;75;656;-68
2021/11/05 07:35:21;;;;;;;;;;;23.70;45.20;;;;;;1549184;75;1145;-69
2021/11/05 07:37:23;;;;;;;;;;;23.70;45.10;;;;;;1548330;75;702;-69
2021/11/05 07:39:25;;;;;;;;;;;23.70;45.00;;;;;;1553689;75;1935;-68
2021/11/05 07:41:27;;;;;;;;;;;23.80;45.00;;;;;;1550288;75;595;-69
2021/11/05 07:43:29;;;;;;;;;;;23.80;44.80;;;;;;1548971;75;719;-69
2021/11/05 07:45:31;;;;;;;;;;;23.90;44.70;;;;;;1552405;75;1148;-68
2021/11/05 07:47:33;;;;;;;;;;;24.00;44.50;;;;;;1556189;75;670;-69
2021/11/05 07:49:35;;;;;;;;;;;24.00;44.60;;;;;;1554048;75;745;-69
2021/11/05 07:51:37;;;;;;;;;;;23.90;44.50;;;;;;1556929;75;717;-68
2021/11/05 07:53:39;;;;;;;;;;;23.90;44.60;;;;;;1549739;75;711;-68
2021/11/05 07:55:40;;;;;;;;;;;23.70;44.00;;;;;;1551548;75;1144;-67
2021/11/05 07:57:42;;;;;;;;;;;23.60;43.10;;;;;;1553610;75;753;-68
2021/11/05 07:59:44;;;;;;;;;;;23.60;42.80;;;;;;1547208;75;1927;-68
2021/11/05 08:01:46;;;;;;;;;;;23.50;42.40;;;;;;1551110;75;729;-68
2021/11/05 08:03:48;;;;;;;;;;;23.50;42.10;;;;;;1551666;75;775;-68
2021/11/05 08:05:50;;;;;;;;;;;23.40;41.70;;;;;;1549952;75;1122;-68
2021/11/05 08:07:52;;;;;;;;;;;23.40;41.40;;;;;;1548899;75;727;-68
2021/11/05 08:09:54;;;;;;;;;;;23.30;41.30;;;;;;1559131;75;765;-68
2021/11/05 08:11:55;;;;;;;;;;;23.20;41.50;;;;;;1552299;75;793;-68
2021/11/05 08:13:57;;;;;;;;;;;23.20;41.30;;;;;;1560386;75;731;-68
2021/11/05 08:15:59;;;;;;;;;;;23.20;41.20;;;;;;1542474;75;1143;-69
2021/11/05 08:18:01;;;;;;;;;;;23.10;40.90;;;;;;1556146;75;726;-67
2021/11/05 08:20:03;;;;;;;;;;;23.10;40.90;;;;;;1541995;75;1932;-69
2021/11/05 08:22:05;;;;;;;;;;;23.10;40.70;;;;;;1551215;75;777;-71
2021/11/05 08:24:07;;;;;;;;;;;23.00;40.20;;;;;;1542289;75;1215;-69
2021/11/05 08:26:09;;;;;;;;;;;23.00;40.20;;;;;;1554577;75;672;-68
2021/11/05 08:28:11;;;;;;;;;;;23.00;40.30;;;;;;1566641;75;704;-68
2021/11/05 08:30:16;;;;;;;;;;;22.90;40.50;;;;;;1550538;75;738;-67
2021/11/05 08:32:18;;;;;;;;;;;22.90;40.30;;;;;;1563915;75;1757;-68
2021/11/05 08:34:20;;;;;;;;;;;22.90;40.00;;;;;;1544932;75;1160;-68
2021/11/05 08:36:22;;;;;;;;;;;22.90;40.00;;;;;;1550637;75;785;-68
2021/11/05 08:38:25;;;;;;;;;;;22.90;40.10;;;;;;1545432;75;776;-68
2021/11/05 08:40:27;;;;;;;;;;;22.90;40.10;;;;;;1545370;75;1905;-68
2021/11/05 08:42:29;;;;;;;;;;;23.00;40.20;;;;;;1543510;75;777;-68
2021/11/05 08:44:32;;;;;;;;;;;22.90;40.00;;;;;;1560289;75;1102;-68
2021/11/05 08:46:34;;;;;;;;;;;22.90;40.10;;;;;;1552181;75;860;-68
2021/11/05 08:48:36;;;;;;;;;;;22.90;40.00;;;;;;1547731;75;789;-68
2021/11/05 08:50:38;;;;;;;;;;;22.90;39.90;;;;;;1543858;75;723;-68
2021/11/05 08:52:39;;;;;;;;;;;22.80;40.00;;;;;;1552267;75;739;-69
2021/11/05 08:54:41;;;;;;;;;;;22.80;39.90;;;;;;1555063;75;1117;-69
2021/11/05 08:56:43;;;;;;;;;;;22.80;39.90;;;;;;1548114;75;681;-69
2021/11/05 08:58:45;;;;;;;;;;;22.80;39.60;;;;;;1549909;75;798;-68
2021/11/05 09:00:47;;;;;;;;;;;22.70;39.40;;;;;;1550752;75;1951;-68
2021/11/05 09:02:49;;;;;;;;;;;22.70;39.40;;;;;;1551326;75;962;-68
2021/11/05 09:04:51;;;;;;;;;;;22.60;39.60;;;;;;1552214;75;1145;-68
2021/11/05 09:06:53;;;;;;;;;;;22.70;39.50;;;;;;1550403;75;801;-68
2021/11/05 09:08:56;;;;;;;;;;;22.60;39.20;;;;;;1544117;75;812;-68
2021/11/05 09:10:58;;;;;;;;;;;22.60;38.50;;;;;;1552668;75;711;-68
2021/11/05 09:13:00;;;;;;;;;;;22.60;38.60;;;;;;1554525;75;687;-68
2021/11/05 09:15:02;;;;;;;;;;;22.60;38.40;;;;;;1548898;75;1172;-69
2021/11/05 09:17:04;;;;;;;;;;;22.50;38.40;;;;;;1555095;75;608;-69
2021/11/05 09:19:07;;;;;;;;;;;22.50;38.40;;;;;;1545971;75;669;-68
2021/11/05 09:21:09;;;;;;;;;;;22.50;38.60;;;;;;1546372;75;1921;-68
2021/11/05 09:23:11;;;;;;;;;;;22.60;38.10;;;;;;1547006;75;827;-68
2021/11/05 09:25:13;;;;;;;;;;;22.50;38.10;;;;;;1552246;75;1078;-68
2021/11/05 09:27:15;;;;;;;;;;;22.50;37.90;;;;;;1548200;75;688;-68
2021/11/05 09:29:18;;;;;;;;;;;22.50;37.50;;;;;;1557919;75;737;-68
2021/11/05 09:31:21;;;;;;;;;;;22.40;37.70;;;;;;1551719;75;734;-68
2021/11/05 09:33:23;;;;;;;;;;;22.40;37.60;;;;;;1556607;71;224613;-58
2021/11/05 09:35:26;;;;;;;;;;;22.50;37.60;;;;;;1580266;73;1198;-60
2021/11/05 09:37:28;;;;;;;;;;;22.40;37.50;;;;;;1565502;75;706;-59
2021/11/05 09:39:30;;;;;;;;;;;22.40;37.60;;;;;;1579820;75;718;-59
2021/11/05 09:41:32;;;;;;;;;;;22.30;37.50;;;;;;1570325;74;1917;-59
2021/11/05 09:43:34;;;;;;;;;;;22.30;37.50;;;;;;1570624;75;775;-59
2021/11/05 09:45:36;;;;;;;;;;;22.30;37.60;;;;;;1579869;73;1119;-60
2021/11/05 09:47:39;;;;;;;;;;;22.30;37.70;;;;;;1574552;75;720;-58
2021/11/05 09:49:41;;;;;;;;;;;22.30;37.30;;;;;;1560397;74;637;-59
2021/11/05 09:51:42;;;;;;;;;;;22.30;37.20;;;;;;1569974;75;742;-58
2021/11/05 09:53:45;;;;;;;;;;;22.10;37.00;;;;;;1578089;75;696;-61
2021/11/05 09:55:47;;;;;;;;;;;22.20;36.90;;;;;;1567636;75;1127;-57
2021/11/05 09:57:49;;;;;;;;;;;22.20;36.80;;;;;;1582035;75;717;-60
2021/11/05 09:59:51;;;;;;;;;;;22.20;37.00;;;;;;1564988;74;1936;-58
2021/11/05 10:01:53;;;;;;;;;;;22.10;37.00;;;;;;1577398;75;650;-57
2021/11/05 10:03:55;;;;;;;;;;;22.10;36.90;;;;;;1560389;74;759;-59
2021/11/05 10:05:57;;;;;;;;;;;22.10;36.70;;;;;;1568920;75;1144;-57
2021/11/05 10:08:01;;;;;;;;;;;22.10;36.70;;;;;;1585696;75;680;-56
2021/11/05 10:10:03;;;;;;;;;;;22.10;36.90;;;;;;1572715;75;789;-56
2021/11/05 10:12:06;;;;;;;;;;;22.10;37.00;;;;;;1580326;75;668;-56
2021/11/05 10:14:10;;;;;;;;;;;22.10;36.90;;;;;;1570643;75;842;-58
2021/11/05 10:16:15;;;;;;;;;;;22.10;37.00;;;;;;1579029;75;1918;-59
2021/11/05 10:18:18;;;;;;;;;;;22.10;37.10;;;;;;1566414;75;759;-60
2021/11/05 10:20:20;;;;;;;;;;;22.00;36.80;;;;;;1576258;75;1957;-58
2021/11/05 10:22:47;;;;;;;;;;;22.10;36.80;;;;;;1571543;75;752;-59
2021/11/05 10:24:47;;;;;;;;;;;22.10;36.70;;;;;;1564147;74;1662;-59
2021/11/05 10:26:49;;;;;;;;;;;22.10;36.90;;;;;;1583024;75;707;-57
2021/11/05 10:28:51;;;;;;;;;;;22.00;36.80;;;;;;1568646;74;710;-61
2021/11/05 10:30:57;;;;;;;;;;;22.10;37.10;;;;;;1577068;75;729;-59
2021/11/05 10:33:00;;;;;;;;;;;22.00;37.40;;;;;;1577571;75;743;-58
2021/11/05 10:35:03;;;;;;;;;;;22.00;37.60;;;;;;1587347;75;1091;-60
2021/11/05 10:37:05;;;;;;;;;;;22.00;37.70;;;;;;1582643;74;1836;-60
2021/11/05 10:39:07;;;;;;;;;;;22.00;37.90;;;;;;1580650;75;683;-57
2021/11/05 10:41:10;;;;;;;;;;;22.10;38.10;;;;;;1587419;75;1937;-59
2021/11/05 10:43:13;;;;;;;;;;;22.10;38.20;;;;;;1586743;75;884;-60
2021/11/05 10:45:23;;;;;;;;;;;22.10;38.30;;;;;;1587332;75;1092;-56
2021/11/05 10:47:24;;;;;;;;;;;22.10;38.40;;;;;;1568939;74;1788;-59
2021/11/05 10:49:29;;;;;;;;;;;22.10;38.50;;;;;;1572135;75;715;-60
2021/11/05 10:51:31;;;;;;;;;;;22.10;38.60;;;;;;1568139;75;1466;-60
2021/11/05 10:53:37;;;;;;;;;;;22.10;38.70;;;;;;1571031;75;711;-58
2021/11/05 10:55:40;;;;;;;;;;;22.10;38.80;;;;;;1556925;75;1115;-58
2021/11/05 10:57:47;;;;;;;;;;;22.20;38.90;;;;;;1576796;75;702;-58
2021/11/05 10:59:48;;;;;;;;;;;22.10;39.00;;;;;;1586962;75;1678;-58
2021/11/05 11:01:50;;;;;;;;;;;22.10;39.10;;;;;;1586459;75;1949;-59
2021/11/05 11:03:59;;;;;;;;;;;22.10;39.20;;;;;;1587405;75;713;-56
2021/11/05 11:06:02;;;;;;;;;;;22.10;39.20;;;;;;1578812;75;1167;-57
2021/11/05 11:08:04;;;;;;;;;;;22.20;39.40;;;;;;1563853;74;719;-60
2021/11/05 11:10:06;;;;;;;;;;;22.30;39.60;;;;;;1562325;74;793;-59
2021/11/05 11:12:08;;;;;;;;;;;22.30;39.80;;;;;;1552647;76;734;-60
2021/11/05 11:14:15;;;;;;;;;;;22.30;39.80;;;;;;1578236;74;674;-57
2021/11/05 11:16:18;;;;;;;;;;;22.20;39.80;;;;;;1569879;73;1532;-61
2021/11/05 11:18:20;;;;;;;;;;;22.20;40.00;;;;;;1586804;75;862;-57
2021/11/05 11:20:28;;;;;;;;;;;22.30;39.90;;;;;;1583118;75;1929;-58
2021/11/05 11:22:30;;;;;;;;;;;22.30;39.70;;;;;;1584247;75;974;-61
2021/11/05 11:24:33;;;;;;;;;;;22.30;39.60;;;;;;1566386;74;745;-62
2021/11/05 11:26:35;;;;;;;;;;;22.20;39.40;;;;;;1585468;73;1036;-60
2021/11/05 11:28:37;;;;;;;;;;;22.30;39.50;;;;;;1570564;75;762;-58
2021/11/05 11:30:39;;;;;;;;;;;22.30;39.40;;;;;;1583063;75;857;-58
2021/11/05 11:32:42;;;;;;;;;;;22.20;39.20;;;;;;1578871;75;785;-59
2021/11/05 11:34:45;;;;;;;;;;;22.30;39.20;;;;;;1587812;75;790;-56
2021/11/05 11:36:48;;;;;;;;;;;22.30;39.20;;;;;;1584382;75;1158;-57
2021/11/05 11:38:50;;;;;;;;;;;22.20;39.10;;;;;;1588742;75;761;-58
2021/11/05 11:40:52;;;;;;;;;;;22.30;39.20;;;;;;1589575;75;1923;-58
2021/11/05 11:42:54;;;;;;;;;;;22.30;39.20;;;;;;1580618;75;721;-56
2021/11/05 11:44:57;;;;;;;;;;;22.20;39.10;;;;;;1582048;74;1118;-56
2021/11/05 11:47:06;;;;;;;;;;;22.30;39.10;;;;;;1569805;75;942;-55
2021/11/05 11:49:10;;;;;;;;;;;22.20;38.90;;;;;;1583847;74;650;-59
2021/11/05 11:51:16;;;;;;;;;;;22.20;38.90;;;;;;1577171;75;754;-59
2021/11/05 11:53:18;;;;;;;;;;;22.30;39.10;;;;;;1582902;75;789;-59
2021/11/05 11:55:20;;;;;;;;;;;22.30;39.10;;;;;;1531931;75;1257;-58
2021/11/05 11:57:23;;;;;;;;;;;22.30;39.00;;;;;;1576087;75;721;-57
2021/11/05 11:59:29;;;;;;;;;;;22.30;39.10;;;;;;1587650;75;799;-60
2021/11/05 12:01:32;;;;;;;;;;;22.30;39.10;;;;;;1580180;74;1909;-60
2021/11/05 12:03:34;;;;;;;;;;;22.20;39.20;;;;;;1558487;74;775;-58
2021/11/05 12:05:40;;;;;;;;;;;22.30;39.50;;;;;;1544377;76;1149;-58
2021/11/05 12:07:42;;;;;;;;;;;22.30;39.40;;;;;;1583839;75;560;-57
2021/11/05 12:09:44;;;;;;;;;;;22.20;39.40;;;;;;1579605;75;729;-55